Hamada, Japan

12:55 PM JST on October 21, 2014 (GMT +0900)
Iwami | Change Station
CLOSE
Current Station
Airport
Location: Iwami,
Elevation: 177 ft
Nearby Weather Stations

Elev 177 ft 34.68 °N, 131.79 °E | Updated 55 minutes ago

Partly Cloudy
Partly Cloudy
77 °F
Feels Like 77 °F
N
7
Wind Variable Wind from SSW

Today
High -- | Low -- °F
--% Chance of Precip.
Yesterday
High -- | Low -- °F
Precip. -- in
6:22 AM 5:30 PM
Waning Crescent, 7% visible
Pressure 29.95 in
Visibility 6.2 miles
Clouds Few 3000 ft
Dew Point 61 °F
Humidity 57%
Rainfall 0.00 in
Snow Depth Not available.
UV 7 out of 12
Pollen Not available.
Air Quality Not available.
Flu Activity Not available.
METAR RJOW 210300Z 21006KT 160V280 9999 FEW030 SCT/// 25/16 Q1014

More Conditions Fewer Conditions

Pressure 29.95 in
Visibility 6.2 miles
Clouds Few 3000 ft
Dew Point 61 °F
Humidity 57%
Rainfall 0.00 in
Snow Depth Not available.
UV 7 out of 12
Pollen Not available.
Air Quality Not available.
Flu Activity Not available.
METAR RJOW 210300Z 21006KT 160V280 9999 FEW030 SCT/// 25/16 Q1014

More Conditions Fewer Conditions

10-Day Weather Forecast

Almanac

Astronomy

Oct. 21, 2014 Rise Set
Actual Time 6:22 AM JST 5:30 PM JST
Civil Twilight 5:56 AM JST 5:55 PM JST
Nautical Twilight 5:27 AM JST 6:25 PM JST
Astronomical Twilight 4:57 AM JST 6:54 PM JST
Moon 3:38 AM JST 3:59 PM JST
Length of Visible Light 11h 59m
Length of Day
11h 08m
Tomorrow will be 2m 4s shorter.
Waning Crescent, 7% of the Moon is Illuminated
Oct 20
Waning Crescent
Oct 23
New
Oct 30
First Quarter
Nov 6
Full
Nov 14
Last Quarter

Yesterday's Extremes

Country Highs Country Lows

Community

WunderPhotos

Upload Photos

1,763,594 photos uploaded!

Nearby

Snow Depth

Not available.

Earthquake Activity

City Distance Mag. Time & Date
No recent earthquake activity has been reported nearby.
Minimum magnitude displayed is 2.5.

Coastal Water Temperatures

Place Temperature
No Stations Reporting

Nearby Weather Stations